Time;durP1;ratioP1;P1;durP2;ratioP2;P2;SDS_P1;SDS_P2;PMS_P1;PMS_P2;Temp;Humidity;BMP_temperature;BMP_pressure;BME280_temperature;BME280_humidity;BME280_pressure;Samples;Min_cycle;Max_cycle;Signal;HPM_P1;HPM_P2
2021/06/27 00:00:10;;;;;;;5.77;5.23;;;21.90;72.60;;;;;;5054092;28;20466;-68
2021/06/27 00:02:38;;;;;;;11.57;9.90;;;21.90;72.90;;;;;;5054880;28;20557;-68
2021/06/27 00:05:07;;;;;;;6.33;5.73;;;21.90;73.70;;;;;;5054553;28;20983;-68
2021/06/27 00:07:34;;;;;;;5.83;5.33;;;21.90;73.40;;;;;;5054077;28;20463;-68
2021/06/27 00:10:01;;;;;;;5.13;4.73;;;21.90;73.30;;;;;;5054400;28;20471;-68
2021/06/27 00:12:28;;;;;;;4.80;4.40;;;21.90;73.20;;;;;;5068351;28;20466;-67
2021/06/27 00:14:55;;;;;;;4.73;4.10;;;21.90;73.30;;;;;;5074472;28;20485;-68
2021/06/27 00:17:22;;;;;;;4.80;4.40;;;21.90;73.60;;;;;;5074605;28;20466;-68
2021/06/27 00:19:50;;;;;;;5.90;5.30;;;21.90;73.60;;;;;;5074736;28;20466;-68
2021/06/27 00:22:17;;;;;;;6.17;5.57;;;21.90;74.10;;;;;;5074372;28;20959;-69
2021/06/27 00:24:44;;;;;;;5.83;5.37;;;21.90;74.20;;;;;;5074579;28;20988;-68
2021/06/27 00:27:12;;;;;;;6.40;4.87;;;21.90;74.00;;;;;;5074089;28;20832;-68
2021/06/27 00:29:38;;;;;;;5.30;4.80;;;21.90;73.90;;;;;;5074580;28;20455;-68
2021/06/27 00:32:06;;;;;;;5.20;4.80;;;21.90;73.80;;;;;;5073893;28;20458;-68
2021/06/27 00:34:33;;;;;;;5.37;4.87;;;21.90;73.70;;;;;;5074420;28;20473;-68
2021/06/27 00:37:01;;;;;;;4.60;4.30;;;21.90;73.80;;;;;;5073896;28;20806;-68
2021/06/27 00:39:28;;;;;;;4.73;4.43;;;21.90;73.90;;;;;;5074254;28;20454;-68
2021/06/27 00:41:55;;;;;;;5.20;4.70;;;21.80;73.90;;;;;;5064700;28;20463;-68
2021/06/27 00:44:22;;;;;;;4.70;4.40;;;21.80;74.00;;;;;;5054219;28;20852;-68
2021/06/27 00:46:53;;;;;;;5.03;4.40;;;21.70;74.20;;;;;;5054150;28;20837;-68
2021/06/27 00:49:21;;;;;;;5.13;4.27;;;21.70;74.10;;;;;;5053843;28;20463;-69
2021/06/27 00:51:50;;;;;;;5.43;4.00;;;21.60;74.20;;;;;;5054032;28;20468;-67
2021/06/27 00:54:19;;;;;;;4.93;4.10;;;21.60;74.30;;;;;;5053658;28;20530;-69
2021/06/27 00:56:46;;;;;;;5.60;5.20;;;21.60;74.30;;;;;;5054085;28;20542;-69
2021/06/27 00:59:13;;;;;;;5.03;4.73;;;21.50;74.30;;;;;;5053372;28;20977;-68
2021/06/27 01:01:40;;;;;;;5.23;4.83;;;21.50;74.50;;;;;;5053876;28;20467;-68
2021/06/27 01:04:07;;;;;;;4.93;4.57;;;21.50;74.60;;;;;;5053533;28;20992;-69
2021/06/27 01:06:34;;;;;;;4.70;4.30;;;21.40;74.60;;;;;;5053635;28;20533;-68
2021/06/27 01:09:01;;;;;;;7.43;4.77;;;21.40;74.80;;;;;;5052972;28;20468;-68
2021/06/27 01:11:30;;;;;;;4.93;4.50;;;21.40;74.90;;;;;;5059330;28;20474;-68
2021/06/27 01:13:58;;;;;;;4.57;4.27;;;21.40;75.00;;;;;;5073602;28;20459;-68
2021/06/27 01:16:26;;;;;;;5.10;4.33;;;21.40;75.00;;;;;;5073274;28;20536;-68
2021/06/27 01:18:54;;;;;;;4.47;4.07;;;21.40;75.00;;;;;;5073434;28;20954;-68
2021/06/27 01:21:23;;;;;;;4.50;4.10;;;21.40;75.10;;;;;;5073083;28;20512;-68
2021/06/27 01:23:53;;;;;;;5.73;5.33;;;21.40;75.20;;;;;;5073571;28;20463;-68
2021/06/27 01:26:20;;;;;;;5.00;4.60;;;21.40;75.50;;;;;;5073145;28;20850;-68
2021/06/27 01:28:47;;;;;;;5.63;5.13;;;21.40;75.60;;;;;;5073002;28;20466;-68
2021/06/27 01:31:14;;;;;;;5.10;4.53;;;21.40;75.70;;;;;;5072877;28;20470;-68
2021/06/27 01:33:43;;;;;;;4.63;4.30;;;21.40;75.80;;;;;;5073294;28;20473;-68
2021/06/27 01:36:10;;;;;;;4.77;4.37;;;21.40;75.70;;;;;;5072684;28;20808;-68
2021/06/27 01:38:38;;;;;;;5.60;4.13;;;21.40;75.80;;;;;;5073001;28;20588;-68
2021/06/27 01:41:06;;;;;;;5.77;5.27;;;21.30;75.70;;;;;;5070365;28;20462;-68
2021/06/27 01:43:33;;;;;;;4.63;4.30;;;21.30;75.90;;;;;;5053356;28;20483;-68
2021/06/27 01:46:01;;;;;;;5.57;5.07;;;21.30;76.00;;;;;;5053099;28;20467;-68
2021/06/27 01:48:29;;;;;;;5.00;4.60;;;21.30;76.30;;;;;;5057037;28;20481;-68
2021/06/27 01:50:58;;;;;;;6.00;5.50;;;21.30;76.40;;;;;;5073041;28;20515;-68
2021/06/27 01:53:28;;;;;;;5.00;4.60;;;21.20;76.50;;;;;;5072448;28;20462;-68
2021/06/27 01:56:06;;;;;;;5.20;4.80;;;21.20;76.70;;;;;;5073108;28;20485;-68
2021/06/27 01:58:37;;;;;;;5.17;4.77;;;21.20;76.80;;;;;;5072747;28;20540;-68
2021/06/27 02:01:06;;;;;;;4.80;4.40;;;21.20;76.80;;;;;;5072891;28;20462;-68
2021/06/27 02:03:33;;;;;;;5.37;4.97;;;21.10;77.00;;;;;;5072210;28;20489;-68
2021/06/27 02:06:00;;;;;;;5.53;5.03;;;21.20;77.20;;;;;;5072987;28;20462;-68
2021/06/27 02:08:32;;;;;;;7.17;4.73;;;21.20;77.80;;;;;;5072159;28;20493;-68
2021/06/27 02:11:02;;;;;;;5.17;4.73;;;21.20;77.80;;;;;;5072563;28;20458;-68
2021/06/27 02:13:29;;;;;;;5.60;5.20;;;21.30;78.00;;;;;;5072363;28;20827;-68
2021/06/27 02:15:57;;;;;;;5.27;4.93;;;21.30;77.90;;;;;;5072714;28;20466;-68
2021/06/27 02:18:30;;;;;;;4.40;4.10;;;21.30;77.30;;;;;;5071960;28;20535;-68
2021/06/27 02:20:58;;;;;;;4.80;4.40;;;21.30;76.80;;;;;;5072819;28;20473;-68
2021/06/27 02:23:25;;;;;;;4.90;4.50;;;21.30;76.70;;;;;;5072249;28;20979;-68
2021/06/27 02:25:52;;;;;;;4.83;4.43;;;21.40;76.90;;;;;;5072543;28;20466;-68
2021/06/27 02:28:21;;;;;;;5.07;4.67;;;21.40;77.30;;;;;;5072075;28;20473;-68
2021/06/27 02:30:49;;;;;;;4.90;4.53;;;21.40;77.80;;;;;;5072070;28;20968;-68
2021/06/27 02:33:16;;;;;;;5.50;5.07;;;21.40;77.80;;;;;;5071926;28;20466;-68
2021/06/27 02:35:43;;;;;;;5.40;5.00;;;21.40;77.40;;;;;;5072753;28;20800;-68
2021/06/27 02:38:10;;;;;;;4.70;4.30;;;21.40;77.90;;;;;;5072098;28;20470;-68
2021/06/27 02:40:38;;;;;;;4.87;4.47;;;21.40;77.90;;;;;;5072160;28;20470;-68
2021/06/27 02:43:05;;;;;;;4.73;4.33;;;21.40;78.00;;;;;;5053573;28;20475;-68
2021/06/27 02:45:34;;;;;;;5.10;4.60;;;21.50;78.50;;;;;;5051886;28;20468;-67
2021/06/27 02:48:01;;;;;;;5.33;4.63;;;21.50;77.90;;;;;;5052860;28;20475;-68
2021/06/27 02:50:28;;;;;;;4.63;4.33;;;21.50;77.20;;;;;;5072017;28;20477;-67
2021/06/27 02:52:55;;;;;;;4.10;3.80;;;21.60;77.90;;;;;;5072269;28;20507;-68
2021/06/27 02:55:23;;;;;;;4.90;4.30;;;21.60;77.60;;;;;;5071932;28;20466;-68
2021/06/27 02:57:51;;;;;;;5.93;5.33;;;21.60;77.20;;;;;;5072321;28;20999;-68
2021/06/27 03:00:21;;;;;;;6.20;5.60;;;21.60;76.90;;;;;;5071740;28;20469;-67
2021/06/27 03:02:49;;;;;;;5.80;5.23;;;21.50;76.90;;;;;;5072008;28;20482;-67
2021/06/27 03:05:18;;;;;;;5.77;5.27;;;21.40;77.20;;;;;;5071976;28;20474;-67
2021/06/27 03:07:45;;;;;;;5.33;4.90;;;21.40;77.60;;;;;;5072002;28;20485;-68
2021/06/27 03:10:15;;;;;;;5.43;4.97;;;21.40;77.80;;;;;;5072199;28;20474;-68
2021/06/27 03:12:42;;;;;;;8.93;5.40;;;21.30;77.90;;;;;;5071571;28;21256;-68
2021/06/27 03:15:10;;;;;;;6.50;6.00;;;21.30;78.20;;;;;;5072249;28;21139;-68
2021/06/27 03:17:38;;;;;;;6.40;5.77;;;21.30;78.50;;;;;;5071525;28;20827;-68
2021/06/27 03:20:08;;;;;;;6.50;5.23;;;21.20;78.90;;;;;;5071996;28;20473;-67
2021/06/27 03:22:35;;;;;;;8.77;5.60;;;21.20;79.40;;;;;;5071431;28;20461;-68
2021/06/27 03:25:02;;;;;;;6.33;5.93;;;21.20;79.60;;;;;;5071897;28;20470;-68
2021/06/27 03:27:30;;;;;;;5.60;5.10;;;21.20;79.60;;;;;;5071462;28;20770;-68
2021/06/27 03:29:57;;;;;;;6.87;4.27;;;21.20;79.70;;;;;;5071924;28;20462;-68
2021/06/27 03:32:24;;;;;;;5.90;5.40;;;21.20;79.90;;;;;;5071304;28;20462;-68
2021/06/27 03:34:51;;;;;;;6.07;4.80;;;21.10;80.00;;;;;;5072148;28;20475;-68
2021/06/27 03:37:19;;;;;;;6.57;5.87;;;21.10;80.30;;;;;;5071663;28;20477;-67
2021/06/27 03:39:47;;;;;;;7.10;6.60;;;21.00;80.60;;;;;;5071680;28;20532;-67
2021/06/27 03:42:14;;;;;;;6.90;6.27;;;21.00;80.80;;;;;;5071824;28;20481;-67
2021/06/27 03:44:41;;;;;;;5.47;4.97;;;20.90;80.90;;;;;;5074681;28;20477;-67
2021/06/27 03:47:08;;;;;;;5.80;5.30;;;20.80;81.00;;;;;;5075260;28;20462;-67
2021/06/27 03:49:35;;;;;;;6.20;5.73;;;20.80;81.40;;;;;;5074757;28;20541;-67
2021/06/27 03:52:02;;;;;;;5.93;5.43;;;20.70;81.50;;;;;;5075255;28;20487;-66
2021/06/27 03:54:32;;;;;;;6.23;5.73;;;20.70;81.70;;;;;;5074899;28;20470;-68
2021/06/27 03:56:59;;;;;;;5.23;4.73;;;20.70;81.80;;;;;;5075237;28;20473;-68
2021/06/27 03:59:26;;;;;;;5.13;4.73;;;20.70;81.90;;;;;;5074510;28;20476;-68
2021/06/27 04:01:53;;;;;;;9.83;5.63;;;20.70;82.10;;;;;;5075258;28;20466;-68
2021/06/27 04:04:20;;;;;;;5.90;5.50;;;20.60;82.00;;;;;;5074871;28;20482;-68
2021/06/27 04:06:46;;;;;;;5.27;4.90;;;20.60;82.20;;;;;;5074422;28;20804;-68
2021/06/27 04:09:13;;;;;;;5.50;5.10;;;20.60;82.40;;;;;;5074937;28;20458;-68
2021/06/27 04:11:42;;;;;;;8.13;5.53;;;20.60;82.60;;;;;;5074386;28;20815;-68
2021/06/27 04:14:09;;;;;;;6.40;5.80;;;20.50;82.90;;;;;;5074785;28;20474;-68
2021/06/27 04:16:36;;;;;;;4.90;4.50;;;20.50;83.00;;;;;;5074413;28;20460;-68
2021/06/27 04:19:03;;;;;;;5.30;4.90;;;20.40;83.20;;;;;;5074544;28;20500;-69
2021/06/27 04:21:32;;;;;;;5.70;5.30;;;20.40;83.40;;;;;;5074364;28;20595;-69
2021/06/27 04:23:59;;;;;;;5.40;4.90;;;20.50;83.60;;;;;;5074667;28;20454;-69
2021/06/27 04:26:26;;;;;;;4.97;4.60;;;20.50;83.60;;;;;;5070244;28;20473;-69
2021/06/27 04:28:54;;;;;;;6.27;5.80;;;20.50;83.50;;;;;;5054492;28;20474;-69
2021/06/27 04:31:22;;;;;;;5.97;5.47;;;20.60;83.70;;;;;;5054731;28;20467;-67
2021/06/27 04:33:49;;;;;;;5.80;5.30;;;20.60;83.80;;;;;;5053919;28;20778;-67
2021/06/27 04:36:18;;;;;;;6.60;6.10;;;20.60;83.90;;;;;;5054485;28;20478;-67
2021/06/27 04:38:45;;;;;;;5.33;4.93;;;20.70;84.00;;;;;;5073164;28;20493;-68
2021/06/27 04:41:13;;;;;;;5.07;4.70;;;20.70;83.90;;;;;;5070955;28;20459;-68
2021/06/27 04:43:40;;;;;;;5.13;4.73;;;20.70;83.90;;;;;;5053935;28;20992;-67
2021/06/27 04:46:08;;;;;;;5.40;5.00;;;20.80;84.00;;;;;;5054245;28;20470;-68
2021/06/27 04:48:37;;;;;;;5.60;5.10;;;20.80;84.00;;;;;;5053288;28;20472;-68
2021/06/27 04:51:05;;;;;;;5.33;4.70;;;20.80;84.00;;;;;;5054368;28;20473;-68
2021/06/27 04:53:31;;;;;;;5.13;4.73;;;20.80;83.90;;;;;;5053547;28;20490;-68
2021/06/27 04:55:59;;;;;;;4.90;4.50;;;20.90;84.00;;;;;;5054128;28;20895;-67
2021/06/27 04:58:27;;;;;;;4.73;4.33;;;21.00;84.10;;;;;;5054007;28;20984;-67
2021/06/27 05:00:54;;;;;;;6.23;5.73;;;21.10;84.20;;;;;;5053807;28;21318;-67
2021/06/27 05:03:22;;;;;;;5.37;4.87;;;21.10;84.10;;;;;;5053722;28;20467;-68
2021/06/27 05:05:49;;;;;;;5.70;5.20;;;21.10;83.20;;;;;;5067267;28;24987;-68
2021/06/27 05:08:16;;;;;;;5.00;4.70;;;21.10;82.80;;;;;;5073587;28;20482;-68
2021/06/27 05:10:43;;;;;;;4.73;4.33;;;21.20;82.50;;;;;;5073290;28;20476;-68
2021/06/27 05:13:10;;;;;;;4.73;4.33;;;21.20;82.10;;;;;;5073545;28;20469;-67
2021/06/27 05:15:37;;;;;;;5.00;4.60;;;21.30;82.00;;;;;;5073315;28;20789;-68
2021/06/27 05:18:04;;;;;;;5.40;4.90;;;21.30;81.50;;;;;;5073399;28;20462;-67
2021/06/27 05:20:33;;;;;;;5.33;4.83;;;21.30;81.10;;;;;;5073090;28;20477;-67
2021/06/27 05:23:00;;;;;;;6.00;5.50;;;21.40;81.20;;;;;;5073426;28;20465;-67
2021/06/27 05:25:27;;;;;;;5.80;5.00;;;21.40;80.90;;;;;;5073254;28;21003;-68
2021/06/27 05:28:00;;;;;;;5.23;4.83;;;21.40;80.70;;;;;;5072829;28;20489;-67
2021/06/27 05:30:27;;;;;;;4.50;4.20;;;21.50;80.80;;;;;;5073323;28;20477;-68
2021/06/27 05:32:55;;;;;;;6.17;5.67;;;21.50;80.80;;;;;;5072977;28;20473;-67
2021/06/27 05:35:22;;;;;;;5.00;4.70;;;21.60;80.60;;;;;;5073339;28;20831;-68
2021/06/27 05:37:50;;;;;;;5.23;4.83;;;21.60;80.60;;;;;;5072623;28;20484;-67
2021/06/27 05:40:17;;;;;;;7.30;5.30;;;21.70;80.60;;;;;;5073207;28;20785;-68
2021/06/27 05:42:44;;;;;;;5.57;5.07;;;21.80;80.40;;;;;;5072708;28;20467;-67
2021/06/27 05:45:11;;;;;;;3.87;3.63;;;21.80;80.00;;;;;;5073031;28;20462;-68
2021/06/27 05:47:38;;;;;;;4.63;4.33;;;21.90;79.80;;;;;;5072401;28;20473;-68
2021/06/27 05:50:06;;;;;;;5.97;5.37;;;22.00;78.40;;;;;;5073170;28;20466;-68
2021/06/27 05:52:33;;;;;;;5.37;4.90;;;22.10;77.90;;;;;;5072250;28;20474;-67
2021/06/27 05:55:02;;;;;;;5.17;4.77;;;22.20;77.20;;;;;;5073037;28;20461;-68
2021/06/27 05:57:29;;;;;;;4.10;3.80;;;22.30;77.40;;;;;;5072916;28;20512;-68
2021/06/27 05:59:56;;;;;;;4.80;4.17;;;22.40;76.50;;;;;;5072421;28;20473;-68
2021/06/27 06:02:22;;;;;;;3.90;3.60;;;22.50;75.80;;;;;;5073011;28;20466;-68
2021/06/27 06:04:49;;;;;;;4.67;4.37;;;22.60;75.50;;;;;;5066490;28;20494;-68
2021/06/27 06:07:16;;;;;;;4.70;4.40;;;22.70;75.10;;;;;;5052168;28;20471;-68
2021/06/27 06:09:43;;;;;;;7.43;4.47;;;22.90;74.70;;;;;;5052286;28;20474;-68
2021/06/27 06:12:12;;;;;;;4.00;3.70;;;23.00;74.30;;;;;;5052559;28;20471;-67
2021/06/27 06:14:39;;;;;;;3.30;3.10;;;23.10;73.80;;;;;;5052118;28;20463;-67
2021/06/27 06:17:06;;;;;;;4.50;4.20;;;23.30;72.60;;;;;;5052607;28;20495;-67
2021/06/27 06:19:33;;;;;;;4.20;3.90;;;23.40;73.00;;;;;;5052539;28;20979;-66
2021/06/27 06:22:00;;;;;;;4.50;4.10;;;23.60;72.40;;;;;;5052158;28;21282;-67
2021/06/27 06:24:27;;;;;;;4.30;3.40;;;23.80;71.50;;;;;;5052548;28;20490;-68
2021/06/27 06:26:54;;;;;;;3.60;3.40;;;24.00;70.20;;;;;;5052034;28;20468;-67
2021/06/27 06:29:22;;;;;;;3.73;3.43;;;24.20;69.80;;;;;;5052392;28;20847;-67
2021/06/27 06:31:50;;;;;;;4.03;3.73;;;24.30;68.20;;;;;;5052005;28;20463;-67
2021/06/27 06:34:17;;;;;;;4.30;3.90;;;24.50;68.10;;;;;;5052316;28;20608;-68
2021/06/27 06:36:47;;;;;;;3.30;3.00;;;24.60;67.20;;;;;;5054261;28;20474;-68
2021/06/27 06:39:14;;;;;;;3.97;3.60;;;24.80;66.70;;;;;;5072629;28;20490;-68
2021/06/27 06:41:41;;;;;;;3.77;2.97;;;25.00;66.20;;;;;;5071672;28;20477;-68
2021/06/27 06:44:08;;;;;;;3.43;3.23;;;25.20;66.10;;;;;;5072294;28;20473;-68
2021/06/27 06:46:36;;;;;;;5.60;3.63;;;25.30;65.40;;;;;;5072361;28;20968;-68
2021/06/27 06:49:04;;;;;;;4.00;3.57;;;25.50;66.00;;;;;;5072007;28;20458;-67
2021/06/27 06:51:31;;;;;;;3.47;3.17;;;25.70;64.40;;;;;;5072489;28;20466;-68
2021/06/27 06:53:58;;;;;;;3.20;3.00;;;25.80;63.70;;;;;;5072078;28;20462;-67
2021/06/27 06:56:25;;;;;;;3.60;3.40;;;26.00;63.60;;;;;;5072360;28;21250;-68
2021/06/27 06:58:52;;;;;;;3.53;3.23;;;26.10;62.90;;;;;;5071614;28;20494;-68
2021/06/27 07:01:19;;;;;;;3.80;3.50;;;26.30;62.00;;;;;;5072355;28;20473;-67
2021/06/27 07:03:48;;;;;;;3.53;3.23;;;26.40;61.70;;;;;;5071780;28;20459;-67
2021/06/27 07:06:15;;;;;;;3.07;2.87;;;26.50;60.80;;;;;;5072304;28;20469;-68
2021/06/27 07:08:42;;;;;;;4.00;3.60;;;26.60;60.30;;;;;;5071791;28;20497;-67
2021/06/27 07:11:09;;;;;;;3.90;3.50;;;26.70;59.90;;;;;;5071963;28;20474;-68
2021/06/27 07:13:36;;;;;;;4.40;3.67;;;26.80;59.50;;;;;;5072180;28;20470;-68
2021/06/27 07:16:03;;;;;;;3.53;3.17;;;26.90;59.30;;;;;;5071772;28;20461;-68
2021/06/27 07:18:30;;;;;;;3.80;3.50;;;27.00;59.10;;;;;;5075221;28;20485;-68
2021/06/27 07:20:58;;;;;;;4.00;3.60;;;27.20;58.80;;;;;;5075511;28;20835;-67
2021/06/27 07:23:25;;;;;;;5.53;3.57;;;27.30;58.60;;;;;;5075830;28;20462;-68
2021/06/27 07:25:52;;;;;;;3.17;2.97;;;27.30;57.90;;;;;;5075274;28;20466;-67
2021/06/27 07:28:22;;;;;;;3.80;3.50;;;27.30;57.60;;;;;;5075728;28;20473;-66
2021/06/27 07:30:49;;;;;;;3.27;2.97;;;27.40;57.50;;;;;;5075150;28;20545;-67
2021/06/27 07:33:17;;;;;;;3.57;3.37;;;27.50;57.70;;;;;;5075616;28;20790;-67
2021/06/27 07:35:44;;;;;;;4.00;3.70;;;27.60;57.30;;;;;;5075153;28;20647;-68
2021/06/27 07:38:12;;;;;;;3.07;2.87;;;27.70;57.20;;;;;;5075467;28;20458;-67
2021/06/27 07:40:40;;;;;;;4.50;3.90;;;27.80;57.30;;;;;;5075224;28;20466;-67
2021/06/27 07:43:07;;;;;;;4.90;3.30;;;27.80;57.30;;;;;;5074820;28;20924;-66
2021/06/27 07:45:34;;;;;;;3.23;2.97;;;27.90;56.60;;;;;;5075333;28;20466;-67
2021/06/27 07:48:01;;;;;;;4.20;3.37;;;28.00;56.20;;;;;;5074812;28;20462;-67
2021/06/27 07:50:28;;;;;;;3.57;3.27;;;28.10;56.40;;;;;;5075209;28;20469;-67
2021/06/27 07:52:55;;;;;;;3.40;3.20;;;28.20;56.00;;;;;;5074745;28;20548;-67
2021/06/27 07:55:24;;;;;;;3.57;3.27;;;28.20;55.80;;;;;;5075294;28;20458;-67
2021/06/27 07:57:51;;;;;;;3.73;3.43;;;28.10;55.70;;;;;;5074679;28;21049;-67
2021/06/27 08:00:20;;;;;;;4.13;3.40;;;28.20;56.00;;;;;;5074873;28;20470;-67
2021/06/27 08:02:47;;;;;;;3.43;3.23;;;28.30;56.00;;;;;;5074765;28;20470;-68
2021/06/27 08:05:14;;;;;;;4.17;3.87;;;28.30;55.90;;;;;;5075284;28;21021;-68
2021/06/27 08:07:41;;;;;;;4.03;3.73;;;28.40;55.70;;;;;;5074916;28;20467;-68
2021/06/27 08:10:10;;;;;;;3.53;3.30;;;28.40;55.40;;;;;;5074558;28;20948;-67
2021/06/27 08:12:39;;;;;;;3.83;3.53;;;28.40;55.40;;;;;;5074741;28;20470;-68
2021/06/27 08:15:08;;;;;;;3.50;3.20;;;28.50;55.40;;;;;;5074312;28;20545;-68
2021/06/27 08:17:35;;;;;;;4.07;3.77;;;28.50;55.10;;;;;;5074887;28;20470;-67
2021/06/27 08:20:02;;;;;;;3.70;3.50;;;28.50;55.70;;;;;;5074295;28;20908;-67
2021/06/27 08:22:29;;;;;;;3.93;3.63;;;28.60;55.00;;;;;;5074406;28;20903;-67
2021/06/27 08:24:56;;;;;;;3.73;3.43;;;28.70;54.90;;;;;;5074359;28;20473;-68
2021/06/27 08:27:23;;;;;;;4.10;3.80;;;28.70;55.00;;;;;;5074592;28;22115;-68
2021/06/27 08:29:52;;;;;;;3.77;3.47;;;28.70;54.40;;;;;;5073482;28;20470;-68
2021/06/27 08:32:18;;;;;;;5.20;4.00;;;28.70;54.50;;;;;;5074674;28;20465;-68
2021/06/27 08:34:45;;;;;;;4.60;3.47;;;28.60;54.20;;;;;;5074266;28;20477;-67
2021/06/27 08:37:12;;;;;;;3.70;3.40;;;28.60;54.60;;;;;;5073950;28;21254;-67
2021/06/27 08:39:39;;;;;;;4.33;4.00;;;28.60;54.60;;;;;;5074410;28;20489;-68
2021/06/27 08:42:07;;;;;;;3.43;3.23;;;28.50;54.20;;;;;;5062973;28;20470;-67
2021/06/27 08:44:35;;;;;;;3.70;3.50;;;28.40;54.30;;;;;;5054247;28;20470;-67
2021/06/27 08:47:05;;;;;;;4.10;3.80;;;28.30;54.60;;;;;;5053835;28;20463;-67
2021/06/27 08:49:33;;;;;;;3.60;3.30;;;28.20;54.60;;;;;;5053975;28;20471;-67
2021/06/27 08:52:00;;;;;;;3.80;3.60;;;28.20;55.00;;;;;;5053716;28;20499;-67
2021/06/27 08:54:29;;;;;;;3.20;3.00;;;28.10;55.30;;;;;;5054058;28;20816;-67
2021/06/27 08:56:56;;;;;;;3.50;3.20;;;28.10;55.30;;;;;;5053701;28;20474;-67
2021/06/27 08:59:23;;;;;;;4.93;4.53;;;28.10;55.30;;;;;;5054047;28;20810;-67
2021/06/27 09:01:53;;;;;;;3.93;3.73;;;28.10;55.20;;;;;;5053563;28;20467;-67
2021/06/27 09:04:21;;;;;;;3.23;2.97;;;28.00;55.30;;;;;;5053880;28;20881;-68
2021/06/27 09:06:48;;;;;;;4.33;4.03;;;28.00;55.30;;;;;;5053766;28;20471;-67
2021/06/27 09:09:17;;;;;;;3.70;3.40;;;28.00;55.30;;;;;;5053369;28;20486;-67
2021/06/27 09:11:59;;;;;;;3.33;3.13;;;28.00;55.50;;;;;;5053647;28;20487;-68
2021/06/27 09:14:32;;;;;;;3.80;3.50;;;27.90;56.00;;;;;;5053230;28;20463;-68
2021/06/27 09:17:14;;;;;;;3.33;3.13;;;27.80;55.40;;;;;;5053776;28;20820;-67
2021/06/27 09:20:05;;;;;;;3.70;3.40;;;27.60;55.60;;;;;;5069686;28;20454;-67
2021/06/27 09:22:34;;;;;;;3.63;3.33;;;27.50;55.80;;;;;;5073245;28;20474;-67
2021/06/27 09:25:22;;;;;;;3.57;3.17;;;27.50;56.00;;;;;;5073549;28;20475;-67
2021/06/27 09:28:03;;;;;;;3.20;3.00;;;27.50;56.10;;;;;;5073182;28;20459;-67
2021/06/27 09:30:32;;;;;;;4.57;2.90;;;27.30;56.10;;;;;;5072912;28;20462;-68
2021/06/27 09:33:03;;;;;;;3.07;2.87;;;27.20;56.20;;;;;;5073400;28;20465;-68
2021/06/27 09:35:43;;;;;;;3.37;3.03;;;27.10;56.40;;;;;;5072826;28;20473;-67
2021/06/27 09:38:31;;;;;;;3.23;3.03;;;27.10;56.50;;;;;;5073140;28;20478;-67
2021/06/27 09:41:00;;;;;;;3.23;2.97;;;27.10;56.50;;;;;;5070592;28;21293;-68
2021/06/27 09:43:30;;;;;;;3.57;3.37;;;27.10;56.60;;;;;;5053223;28;20630;-68
2021/06/27 09:45:58;;;;;;;3.70;3.40;;;27.10;56.80;;;;;;5052755;28;20969;-68
2021/06/27 09:48:27;;;;;;;3.00;2.80;;;27.10;56.80;;;;;;5052676;28;20505;-67
2021/06/27 09:50:58;;;;;;;3.23;3.00;;;27.20;56.70;;;;;;5052649;28;20636;-67
2021/06/27 09:53:38;;;;;;;2.43;2.23;;;27.20;56.70;;;;;;5052929;28;20965;-68
2021/06/27 09:56:08;;;;;;;3.80;3.50;;;27.20;56.20;;;;;;5062675;28;20563;-67
2021/06/27 09:58:36;;;;;;;4.67;3.60;;;27.10;56.50;;;;;;5072863;28;20482;-68
2021/06/27 10:01:08;;;;;;;3.17;2.90;;;26.90;56.70;;;;;;5072718;28;20469;-67
2021/06/27 10:03:51;;;;;;;3.80;3.50;;;26.80;56.70;;;;;;5072623;28;20541;-68
2021/06/27 10:06:20;;;;;;;2.70;2.50;;;26.70;56.70;;;;;;5073264;28;20466;-68
2021/06/27 10:08:47;;;;;;;3.03;2.83;;;26.70;56.60;;;;;;5072180;28;20482;-68
2021/06/27 10:11:17;;;;;;;3.07;2.87;;;26.70;56.60;;;;;;5072749;28;20475;-68
2021/06/27 10:13:50;;;;;;;3.20;2.90;;;26.60;56.70;;;;;;5072243;28;20470;-67
2021/06/27 10:16:29;;;;;;;3.23;2.93;;;26.70;56.90;;;;;;5072468;28;20462;-68
2021/06/27 10:18:58;;;;;;;3.57;3.27;;;26.80;56.40;;;;;;5072379;28;21199;-68
2021/06/27 10:21:29;;;;;;;3.27;2.97;;;26.80;56.00;;;;;;5072740;28;20533;-67
2021/06/27 10:23:58;;;;;;;2.90;2.70;;;26.90;55.60;;;;;;5072348;28;20462;-67
2021/06/27 10:26:27;;;;;;;3.13;2.73;;;26.80;56.30;;;;;;5072203;28;20473;-67
2021/06/27 10:28:55;;;;;;;3.67;3.40;;;26.80;56.20;;;;;;5072125;28;20462;-68
2021/06/27 10:31:25;;;;;;;3.33;3.13;;;26.90;56.30;;;;;;5072351;28;21031;-68
2021/06/27 10:33:53;;;;;;;3.17;2.97;;;27.00;56.30;;;;;;5071874;28;20783;-68
2021/06/27 10:36:31;;;;;;;2.90;2.70;;;27.10;56.40;;;;;;5072470;28;20458;-68
2021/06/27 10:39:01;;;;;;;3.10;2.90;;;27.20;56.40;;;;;;5057632;28;20545;-68
2021/06/27 10:41:51;;;;;;;3.27;3.07;;;27.20;56.30;;;;;;5062295;28;20468;-68
2021/06/27 10:44:19;;;;;;;2.93;2.73;;;27.20;56.10;;;;;;5052273;28;20470;-68
2021/06/27 10:46:48;;;;;;;3.93;3.20;;;27.30;56.10;;;;;;5058247;28;20466;-68
2021/06/27 10:49:52;;;;;;;3.30;2.53;;;27.30;55.90;;;;;;5071708;28;20481;-68
2021/06/27 10:52:21;;;;;;;2.97;2.77;;;27.40;55.70;;;;;;5073509;28;20564;-67
2021/06/27 10:55:20;;;;;;;3.73;3.43;;;27.40;55.70;;;;;;5074268;28;20515;-67
2021/06/27 10:57:59;;;;;;;3.97;3.67;;;27.40;55.80;;;;;;5055853;28;20478;-68
2021/06/27 11:00:28;;;;;;;3.87;3.60;;;27.40;55.90;;;;;;5055895;28;20459;-67
2021/06/27 11:02:55;;;;;;;12.53;11.30;;;27.50;56.00;;;;;;5056050;28;20474;-67
2021/06/27 11:05:39;;;;;;;7.60;7.00;;;27.50;56.20;;;;;;5056016;28;20799;-67
2021/06/27 11:08:08;;;;;;;7.33;6.20;;;27.50;56.30;;;;;;5055875;28;20495;-67
2021/06/27 11:10:36;;;;;;;9.47;8.77;;;27.60;56.00;;;;;;5055813;28;20502;-67
2021/06/27 11:13:19;;;;;;;8.17;7.47;;;27.70;56.00;;;;;;5067517;28;20477;-68
2021/06/27 11:16:20;;;;;;;18.83;17.13;;;27.70;56.00;;;;;;5075813;28;20472;-67
2021/06/27 11:18:50;;;;;;;17.60;16.00;;;27.70;56.00;;;;;;5071370;28;20471;-68
2021/06/27 11:21:33;;;;;;;3.97;3.77;;;27.80;55.90;;;;;;5075872;28;20461;-67
2021/06/27 11:24:04;;;;;;;5.70;5.30;;;27.80;55.50;;;;;;5075224;28;21001;-67
2021/06/27 11:27:01;;;;;;;6.57;6.07;;;27.80;55.70;;;;;;5075508;28;20472;-68
2021/06/27 11:29:45;;;;;;;36.20;32.33;;;27.80;55.90;;;;;;5073835;28;20462;-68
2021/06/27 11:32:47;;;;;;;11.40;10.40;;;27.80;56.00;;;;;;5075543;28;20959;-67
2021/06/27 11:35:37;;;;;;;9.03;8.27;;;27.80;55.80;;;;;;5075459;28;20454;-67
2021/06/27 11:38:05;;;;;;;15.50;14.00;;;27.80;55.30;;;;;;5075344;28;20971;-68
2021/06/27 11:40:48;;;;;;;9.30;8.50;;;27.90;55.20;;;;;;5074902;28;21203;-68
2021/06/27 11:43:15;;;;;;;20.27;18.20;;;27.90;55.00;;;;;;5054948;28;20455;-68
2021/06/27 11:45:45;;;;;;;15.07;13.57;;;28.00;55.00;;;;;;5055509;28;20463;-68
2021/06/27 11:48:13;;;;;;;3.40;3.20;;;28.00;54.70;;;;;;5054823;28;20455;-68
2021/06/27 11:50:47;;;;;;;12.80;11.60;;;28.00;54.20;;;;;;5055375;28;20486;-67
2021/06/27 11:53:14;;;;;;;9.90;9.00;;;27.90;54.40;;;;;;5054976;28;20850;-67
2021/06/27 11:55:43;;;;;;;12.37;11.27;;;27.90;54.60;;;;;;5062375;28;20470;-67
2021/06/27 11:58:24;;;;;;;34.07;30.77;;;27.90;54.90;;;;;;5074878;28;20781;-67
2021/06/27 12:00:52;;;;;;;41.00;37.00;;;27.90;55.40;;;;;;5075237;28;20481;-68
2021/06/27 12:03:20;;;;;;;31.23;28.30;;;27.90;56.20;;;;;;5073872;28;20474;-67
2021/06/27 12:05:52;;;;;;;28.77;26.07;;;27.90;55.90;;;;;;5075088;28;20477;-67
2021/06/27 12:08:21;;;;;;;7.07;6.47;;;27.90;55.90;;;;;;5074618;28;20505;-67
2021/06/27 12:10:50;;;;;;;9.17;7.40;;;27.90;55.40;;;;;;5074884;28;20490;-68
2021/06/27 12:13:19;;;;;;;3.30;3.00;;;27.90;55.20;;;;;;5074461;28;20478;-67
2021/06/27 12:15:47;;;;;;;4.27;3.90;;;27.90;54.50;;;;;;5075055;28;20469;-68
2021/06/27 12:18:17;;;;;;;7.73;7.10;;;27.90;54.60;;;;;;5074610;28;20470;-68
2021/06/27 12:20:47;;;;;;;5.70;5.30;;;27.90;54.90;;;;;;5074816;28;20498;-68
2021/06/27 12:23:16;;;;;;;5.87;5.40;;;27.90;54.80;;;;;;5074476;28;20467;-68
2021/06/27 12:25:45;;;;;;;6.07;5.57;;;27.90;54.80;;;;;;5074678;28;20470;-68
2021/06/27 12:28:15;;;;;;;14.57;13.17;;;27.90;54.90;;;;;;5074297;28;20489;-68
2021/06/27 12:30:55;;;;;;;13.53;12.23;;;27.80;55.00;;;;;;5074448;28;20527;-68
2021/06/27 12:33:24;;;;;;;14.30;12.90;;;27.80;55.20;;;;;;5073867;28;20978;-67
2021/06/27 12:35:54;;;;;;;9.23;8.43;;;27.80;55.40;;;;;;5074718;28;20477;-68
2021/06/27 12:38:22;;;;;;;5.10;4.80;;;27.80;55.30;;;;;;5074075;28;20983;-68
2021/06/27 12:40:51;;;;;;;6.30;5.70;;;27.80;55.10;;;;;;5074406;28;21248;-67
2021/06/27 12:43:24;;;;;;;5.00;4.70;;;27.80;55.30;;;;;;5053835;28;20463;-68
2021/06/27 12:46:17;;;;;;;5.90;5.40;;;27.80;55.20;;;;;;5054381;28;20490;-68
2021/06/27 12:48:46;;;;;;;3.30;3.00;;;27.80;55.20;;;;;;5054046;28;20474;-68
2021/06/27 12:51:24;;;;;;;4.20;3.90;;;27.70;54.50;;;;;;5054058;28;20784;-68
2021/06/27 12:54:04;;;;;;;3.30;3.00;;;27.70;54.80;;;;;;5054010;28;21479;-68
2021/06/27 12:56:47;;;;;;;4.50;4.20;;;27.70;54.70;;;;;;5067341;28;20469;-67